createdAt,value
2023-05-13T00:02:09.310Z,100.00
2023-05-13T00:04:36.378Z,100.00
2023-05-13T00:07:03.259Z,100.00
2023-05-13T00:09:37.429Z,100.00
2023-05-13T00:14:46.435Z,100.00
2023-05-13T00:17:21.793Z,100.00
2023-05-13T00:19:50.580Z,100.00
2023-05-13T00:25:21.862Z,100.00
2023-05-13T00:27:48.909Z,100.00
2023-05-13T00:30:15.734Z,100.00
2023-05-13T00:38:06.987Z,100.00
2023-05-13T00:40:45.274Z,100.00
2023-05-13T00:43:21.928Z,100.00
2023-05-13T00:45:51.220Z,100.00
2023-05-13T00:48:17.879Z,100.00
2023-05-13T00:50:45.908Z,100.00
2023-05-13T00:53:15.312Z,100.00
2023-05-13T00:55:47.049Z,100.00
2023-05-13T00:58:16.211Z,100.00
2023-05-13T01:01:08.540Z,100.00
2023-05-13T01:04:32.394Z,100.00
2023-05-13T01:07:48.680Z,100.00
2023-05-13T01:14:14.798Z,100.00
2023-05-13T01:22:34.004Z,100.00
2023-05-13T01:27:52.273Z,100.00
2023-05-13T01:30:30.554Z,100.00
2023-05-13T01:33:13.304Z,100.00
2023-05-13T01:35:42.239Z,100.00
2023-05-13T01:38:14.123Z,100.00
2023-05-13T01:40:42.937Z,100.00
2023-05-13T01:43:20.528Z,100.00
2023-05-13T01:45:47.373Z,100.00
2023-05-13T01:48:26.065Z,100.00
2023-05-13T01:50:53.645Z,100.00
2023-05-13T01:53:24.277Z,100.00
2023-05-13T01:56:05.872Z,100.00
2023-05-13T01:58:41.016Z,100.00
2023-05-13T02:01:14.697Z,100.00
2023-05-13T02:03:43.787Z,100.00
2023-05-13T02:06:14.116Z,100.00
2023-05-13T02:08:41.351Z,100.00
2023-05-13T02:11:13.997Z,100.00
2023-05-13T02:13:48.088Z,100.00
2023-05-13T02:16:16.937Z,100.00
2023-05-13T02:18:45.410Z,100.00
2023-05-13T02:21:13.943Z,100.00
2023-05-13T02:24:01.805Z,100.00
2023-05-13T02:26:33.443Z,100.00
2023-05-13T02:29:16.729Z,100.00
2023-05-13T02:31:44.035Z,100.00
2023-05-13T02:34:13.910Z,100.00
2023-05-13T02:36:41.584Z,100.00
2023-05-13T02:39:08.610Z,100.00
2023-05-13T02:41:38.592Z,100.00
2023-05-13T02:44:06.295Z,100.00
2023-05-13T02:46:34.547Z,100.00
2023-05-13T02:49:01.201Z,100.00
2023-05-13T02:51:28.319Z,100.00
2023-05-13T02:53:55.463Z,100.00
2023-05-13T02:56:33.625Z,100.00
2023-05-13T02:59:00.470Z,100.00
2023-05-13T03:01:30.982Z,100.00
2023-05-13T03:03:57.657Z,100.00
2023-05-13T03:06:36.955Z,100.00
2023-05-13T03:09:27.694Z,100.00
2023-05-13T03:12:02.002Z,100.00
2023-05-13T03:17:13.837Z,100.00
2023-05-13T03:19:46.468Z,100.00
2023-05-13T03:22:14.089Z,100.00
2023-05-13T03:24:59.433Z,100.00
2023-05-13T03:27:40.028Z,100.00
2023-05-13T03:30:06.750Z,100.00
2023-05-13T03:32:36.689Z,100.00
2023-05-13T03:35:04.016Z,100.00
2023-05-13T03:37:33.859Z,100.00
2023-05-13T03:40:00.795Z,100.00
2023-05-13T03:42:38.572Z,100.00
2023-05-13T03:45:10.092Z,100.00
2023-05-13T03:47:43.094Z,100.00
2023-05-13T03:50:14.701Z,100.00
2023-05-13T03:52:46.271Z,100.00
2023-05-13T03:55:16.320Z,100.00
2023-05-13T03:57:55.947Z,100.00
2023-05-13T04:00:29.628Z,100.00
2023-05-13T04:03:03.881Z,100.00
2023-05-13T04:05:35.789Z,100.00
2023-05-13T04:08:06.396Z,100.00
2023-05-13T04:10:39.281Z,100.00
2023-05-13T04:13:09.759Z,100.00
2023-05-13T04:15:37.476Z,100.00
2023-05-13T04:18:04.436Z,100.00
2023-05-13T04:20:33.581Z,100.00
2023-05-13T04:23:01.892Z,100.00
2023-05-13T04:25:31.747Z,100.00
2023-05-13T04:27:58.395Z,100.00
2023-05-13T04:30:29.974Z,100.00
2023-05-13T04:33:00.860Z,100.00
2023-05-13T04:35:30.215Z,100.00
2023-05-13T04:37:59.412Z,100.00
2023-05-13T04:40:28.733Z,100.00
2023-05-13T04:45:40.618Z,100.00
2023-05-13T04:48:12.739Z,100.00
2023-05-13T04:50:52.402Z,100.00
2023-05-13T04:53:26.764Z,100.00
2023-05-13T04:56:24.806Z,100.00
2023-05-13T04:59:02.169Z,100.00
2023-05-13T05:01:34.440Z,100.00
2023-05-13T05:14:22.717Z,100.00
2023-05-13T05:16:49.666Z,100.00
2023-05-13T05:22:05.346Z,100.00
2023-05-13T05:24:32.797Z,100.00
2023-05-13T05:27:05.176Z,100.00
2023-05-13T05:32:13.626Z,100.00
2023-05-13T05:34:49.630Z,100.00
2023-05-13T05:40:07.740Z,100.00
2023-05-13T05:45:55.639Z,100.00
2023-05-13T05:48:31.152Z,100.00
2023-05-13T05:51:11.377Z,100.00
2023-05-13T05:56:36.280Z,100.00
2023-05-13T06:01:49.753Z,100.00
2023-05-13T06:04:30.633Z,100.00
2023-05-13T06:07:03.531Z,100.00
2023-05-13T06:17:37.909Z,100.00
2023-05-13T06:20:09.907Z,100.00
2023-05-13T06:22:38.575Z,100.00
2023-05-13T06:25:16.405Z,100.00
2023-05-13T06:27:42.970Z,97.82
2023-05-13T06:36:09.940Z,93.46
2023-05-13T06:38:52.842Z,91.46
2023-05-13T06:41:27.174Z,91.56
2023-05-13T06:47:16.803Z,86.30
2023-05-13T06:55:51.564Z,86.77
2023-05-13T07:01:42.691Z,88.33
2023-05-13T07:13:20.959Z,78.22
2023-05-13T07:15:58.607Z,82.28
2023-05-13T07:18:26.294Z,80.75
2023-05-13T07:24:07.111Z,69.27
2023-05-13T07:29:33.555Z,69.54
2023-05-13T07:39:07.143Z,60.02
2023-05-13T08:04:33.312Z,71.81
2023-05-13T08:07:09.801Z,72.45
2023-05-13T08:18:29.662Z,71.84
2023-05-13T08:27:40.682Z,66.86
2023-05-13T08:30:14.222Z,68.04
2023-05-13T08:35:59.860Z,58.62
2023-05-13T08:54:12.599Z,55.65
2023-05-13T09:31:04.131Z,57.88
2023-05-13T09:33:36.596Z,58.63
2023-05-13T09:41:39.369Z,58.46
2023-05-13T09:44:28.602Z,57.29
2023-05-13T09:52:37.578Z,51.40
2023-05-13T09:55:09.667Z,51.20
2023-05-13T09:57:40.735Z,52.91
2023-05-13T10:00:28.726Z,51.88
2023-05-13T10:02:58.538Z,49.45
2023-05-13T10:05:45.982Z,50.96
2023-05-13T10:08:14.692Z,51.79
2023-05-13T10:10:48.312Z,51.21
2023-05-13T10:13:19.238Z,50.84
2023-05-13T10:21:30.483Z,50.24
2023-05-13T10:24:07.007Z,51.44
2023-05-13T10:26:43.743Z,53.12
2023-05-13T10:32:06.543Z,54.69
2023-05-13T10:47:03.381Z,53.65
2023-05-13T10:52:50.796Z,49.65
2023-05-13T10:58:49.365Z,48.52
2023-05-13T11:06:51.002Z,44.60
2023-05-13T11:14:48.157Z,46.77
2023-05-13T11:17:21.009Z,47.80
2023-05-13T11:22:35.840Z,48.63
2023-05-13T11:27:53.774Z,46.60
2023-05-13T11:31:11.222Z,45.89
2023-05-13T11:48:22.216Z,45.77
2023-05-13T11:56:17.804Z,45.71
2023-05-13T11:58:53.559Z,43.96
2023-05-13T12:01:30.475Z,44.57
2023-05-13T12:04:13.616Z,43.96
2023-05-13T12:15:02.209Z,42.28
2023-05-13T12:20:27.532Z,42.91
2023-05-13T12:28:35.412Z,42.92
2023-05-13T12:31:28.652Z,41.94
2023-05-13T12:33:55.572Z,41.97
2023-05-13T12:36:37.335Z,42.71
2023-05-13T12:44:38.520Z,46.11
2023-05-13T12:47:22.888Z,47.03
2023-05-13T13:03:31.030Z,46.97
2023-05-13T13:11:37.731Z,43.18
2023-05-13T13:14:16.032Z,44.48
2023-05-13T13:16:46.454Z,45.25
2023-05-13T13:41:29.441Z,41.84
2023-05-13T13:44:08.972Z,42.12
2023-05-13T13:57:55.470Z,41.55
2023-05-13T14:12:16.801Z,39.66
2023-05-13T14:17:26.140Z,38.93
2023-05-13T14:19:56.632Z,38.42
2023-05-13T14:22:35.398Z,39.06
2023-05-13T14:25:13.898Z,39.62
2023-05-13T14:27:44.161Z,39.81
2023-05-13T14:30:17.394Z,39.92
2023-05-13T14:32:51.069Z,40.20
2023-05-13T14:35:20.929Z,39.94
2023-05-13T14:37:56.916Z,40.95
2023-05-13T14:43:07.232Z,41.07
2023-05-13T14:45:35.764Z,40.41
2023-05-13T14:48:02.485Z,40.37
2023-05-13T14:50:50.416Z,40.65
2023-05-13T14:53:41.386Z,41.11
2023-05-13T15:02:01.861Z,41.30
2023-05-13T15:04:43.278Z,41.28
2023-05-13T15:07:18.409Z,41.39
2023-05-13T15:09:47.535Z,41.00
2023-05-13T15:12:16.189Z,40.35
2023-05-13T15:14:43.439Z,40.83
2023-05-13T15:17:21.379Z,41.62
2023-05-13T15:19:54.792Z,42.32
2023-05-13T15:22:28.393Z,41.87
2023-05-13T15:24:58.582Z,41.46
2023-05-13T15:33:02.135Z,40.79
2023-05-13T15:35:32.725Z,40.88
2023-05-13T15:46:42.933Z,40.26
2023-05-13T15:54:45.564Z,40.50
2023-05-13T15:57:13.386Z,40.65
2023-05-13T15:59:49.262Z,41.51
2023-05-13T16:05:37.220Z,41.23
2023-05-13T16:08:03.840Z,41.69
2023-05-13T16:13:26.738Z,41.30
2023-05-13T16:16:07.501Z,42.03
2023-05-13T16:21:23.289Z,41.85
2023-05-13T16:26:32.802Z,43.03
2023-05-13T16:31:43.375Z,44.38
2023-05-13T16:34:11.064Z,46.09
2023-05-13T16:36:38.634Z,46.09
2023-05-13T16:39:12.497Z,46.46
2023-05-13T16:41:51.788Z,45.96
2023-05-13T16:52:34.504Z,46.45
2023-05-13T16:55:13.534Z,48.41
2023-05-13T17:00:23.708Z,47.81
2023-05-13T17:02:51.034Z,47.42
2023-05-13T17:05:20.465Z,47.24
2023-05-13T17:07:49.901Z,47.00
2023-05-13T17:10:19.057Z,47.82
2023-05-13T17:18:16.969Z,47.14
2023-05-13T17:23:44.154Z,47.96
2023-05-13T17:26:15.476Z,47.77
2023-05-13T17:48:39.294Z,46.43
2023-05-13T18:14:21.663Z,47.42
2023-05-13T18:16:49.037Z,47.42
2023-05-13T18:19:17.459Z,48.20
2023-05-13T18:21:46.506Z,47.15
2023-05-13T18:24:16.860Z,47.14
2023-05-13T18:26:47.793Z,47.92
2023-05-13T18:34:36.992Z,49.74
2023-05-13T18:37:10.274Z,50.50
2023-05-13T18:39:47.011Z,50.97
2023-05-13T18:50:27.435Z,54.48
2023-05-13T18:52:57.171Z,55.37
2023-05-13T18:55:39.103Z,56.03
2023-05-13T19:01:05.218Z,59.96
2023-05-13T19:06:43.784Z,60.29
2023-05-13T19:14:42.323Z,65.12
2023-05-13T19:19:51.268Z,70.02
2023-05-13T19:25:12.775Z,74.30
2023-05-13T19:27:41.193Z,76.57
2023-05-13T19:32:53.614Z,79.58
2023-05-13T19:35:20.909Z,82.31
2023-05-13T19:37:47.906Z,83.41
2023-05-13T19:40:14.974Z,85.38
2023-05-13T19:45:36.971Z,87.01
2023-05-13T19:48:38.141Z,87.42
2023-05-13T19:51:06.496Z,89.03
2023-05-13T19:54:00.412Z,89.55
2023-05-13T19:59:14.522Z,91.15
2023-05-13T20:09:47.798Z,92.34
2023-05-13T20:12:14.631Z,92.63
2023-05-13T20:14:58.895Z,93.67
2023-05-13T20:17:25.914Z,95.12
2023-05-13T20:19:59.952Z,96.07
2023-05-13T20:22:30.238Z,98.10
2023-05-13T20:24:57.421Z,97.92
2023-05-13T20:27:27.023Z,99.78
2023-05-13T20:29:55.943Z,100.00
2023-05-13T20:32:25.432Z,100.00
2023-05-13T20:35:13.190Z,100.00
2023-05-13T20:37:45.319Z,100.00
2023-05-13T20:40:22.084Z,100.00
2023-05-13T20:42:57.456Z,100.00
2023-05-13T20:45:25.230Z,100.00
2023-05-13T20:47:54.908Z,100.00
2023-05-13T20:50:29.235Z,100.00
2023-05-13T20:53:00.702Z,100.00
2023-05-13T20:55:34.050Z,100.00
2023-05-13T20:58:03.371Z,100.00
2023-05-13T21:00:31.601Z,100.00
2023-05-13T21:03:03.551Z,100.00
2023-05-13T21:05:38.734Z,100.00
2023-05-13T21:14:08.934Z,100.00
2023-05-13T21:16:36.408Z,100.00
2023-05-13T21:19:07.924Z,100.00
2023-05-13T21:21:36.079Z,100.00
2023-05-13T21:24:03.125Z,100.00
2023-05-13T21:26:31.186Z,100.00
2023-05-13T21:29:00.218Z,100.00
2023-05-13T21:31:29.093Z,100.00
2023-05-13T21:33:58.646Z,100.00
2023-05-13T21:36:32.952Z,100.00
2023-05-13T21:39:02.429Z,100.00
2023-05-13T21:41:30.704Z,100.00
2023-05-13T21:43:58.019Z,100.00
2023-05-13T21:46:27.385Z,100.00
2023-05-13T21:48:54.139Z,100.00
2023-05-13T21:51:21.088Z,100.00
2023-05-13T21:53:49.167Z,100.00
2023-05-13T21:58:59.771Z,100.00
2023-05-13T22:01:26.727Z,100.00
2023-05-13T22:03:57.725Z,100.00
2023-05-13T22:09:05.545Z,100.00
2023-05-13T22:11:33.789Z,100.00
2023-05-13T22:14:01.144Z,100.00
2023-05-13T22:16:28.241Z,100.00
2023-05-13T22:18:58.854Z,100.00
2023-05-13T22:21:31.296Z,100.00
2023-05-13T22:23:59.942Z,100.00
2023-05-13T22:26:47.771Z,100.00
2023-05-13T22:29:15.113Z,100.00
2023-05-13T22:31:44.391Z,100.00
2023-05-13T22:34:19.847Z,100.00
2023-05-13T22:36:46.897Z,100.00
2023-05-13T22:39:18.880Z,100.00
2023-05-13T22:41:45.453Z,100.00
2023-05-13T22:44:21.940Z,100.00
2023-05-13T22:46:49.790Z,100.00
2023-05-13T22:49:25.498Z,100.00
2023-05-13T22:51:52.832Z,100.00
2023-05-13T22:54:23.025Z,100.00
2023-05-13T22:56:49.906Z,100.00
2023-05-13T22:59:17.495Z,100.00
2023-05-13T23:01:48.184Z,100.00
2023-05-13T23:04:14.873Z,100.00
2023-05-13T23:06:41.547Z,100.00
2023-05-13T23:09:09.806Z,100.00
2023-05-13T23:11:37.372Z,100.00
2023-05-13T23:14:06.327Z,100.00
2023-05-13T23:16:34.925Z,100.00
2023-05-13T23:19:04.631Z,100.00
2023-05-13T23:21:37.485Z,100.00
2023-05-13T23:24:05.134Z,100.00
2023-05-13T23:26:33.226Z,100.00
2023-05-13T23:29:00.016Z,100.00
2023-05-13T23:31:28.553Z,100.00
2023-05-13T23:33:55.394Z,100.00
2023-05-13T23:36:22.402Z,100.00
2023-05-13T23:39:03.880Z,100.00
2023-05-13T23:41:38.922Z,100.00
2023-05-13T23:44:13.971Z,100.00
2023-05-13T23:46:41.229Z,100.00
2023-05-13T23:49:07.983Z,100.00
2023-05-13T23:51:35.581Z,100.00
2023-05-13T23:54:03.920Z,100.00
2023-05-13T23:56:31.169Z,100.00
2023-05-13T23:59:09.203Z,100.00
